Time;durP1;ratioP1;P1;durP2;ratioP2;P2;SDS_P1;SDS_P2;PMS_P1;PMS_P2;Temp;Humidity;BMP_temperature;BMP_pressure;BME280_temperature;BME280_humidity;BME280_pressure;Samples;Min_cycle;Max_cycle;Signal;HPM_P1;HPM_P2
2021/12/29 00:00:01;;;;;;;12.45;3.75;;;7.40;99.90;;;;;;5073044;28;20420;-77
2021/12/29 00:02:27;;;;;;;13.35;3.85;;;7.40;99.90;;;;;;5071692;28;20058;-74
2021/12/29 00:04:52;;;;;;;10.82;4.10;;;7.50;99.90;;;;;;5056181;28;20040;-76
2021/12/29 00:07:18;;;;;;;10.13;4.00;;;7.50;99.90;;;;;;5055861;28;20055;-76
2021/12/29 00:09:44;;;;;;;11.50;4.15;;;7.50;99.90;;;;;;5090151;28;20457;-78
2021/12/29 00:12:10;;;;;;;17.17;5.13;;;7.50;99.90;;;;;;5070838;28;20098;-76
2021/12/29 00:14:37;;;;;;;20.08;5.40;;;7.50;99.90;;;;;;5072414;28;20439;-76
2021/12/29 00:17:03;;;;;;;14.25;5.55;;;7.50;99.90;;;;;;5072878;28;20097;-76
2021/12/29 00:19:29;;;;;;;16.10;5.78;;;7.50;99.90;;;;;;5072217;28;20441;-76
2021/12/29 00:21:55;;;;;;;17.80;5.43;;;7.50;99.90;;;;;;5072213;28;20122;-76
2021/12/29 00:24:21;;;;;;;19.40;5.93;;;7.50;99.90;;;;;;5072353;28;20064;-77
2021/12/29 00:26:47;;;;;;;21.98;6.95;;;7.50;99.90;;;;;;5090861;28;20444;-72
2021/12/29 00:29:14;;;;;;;21.65;6.43;;;7.50;99.90;;;;;;5071957;28;20040;-75
2021/12/29 00:31:39;;;;;;;19.85;7.15;;;7.50;99.90;;;;;;5072886;28;20051;-76
2021/12/29 00:34:05;;;;;;;28.05;7.32;;;7.50;99.90;;;;;;5090922;28;20456;-76
2021/12/29 00:36:31;;;;;;;28.63;7.57;;;7.50;99.90;;;;;;5071968;28;20395;-71
2021/12/29 00:38:56;;;;;;;46.78;7.63;;;7.50;99.90;;;;;;5072388;28;20048;-75
2021/12/29 00:41:22;;;;;;;26.63;7.47;;;7.50;99.90;;;;;;5072848;28;20067;-75
2021/12/29 00:43:48;;;;;;;22.08;7.25;;;7.50;99.90;;;;;;5070239;28;20476;-71
2021/12/29 00:46:17;;;;;;;29.88;7.60;;;7.50;99.90;;;;;;5052619;28;20048;-77
2021/12/29 00:48:45;;;;;;;29.92;8.10;;;7.40;99.90;;;;;;5060459;28;20048;-72
2021/12/29 00:51:11;;;;;;;26.45;7.25;;;7.50;99.90;;;;;;5072038;28;20105;-79
2021/12/29 00:53:37;;;;;;;35.28;8.07;;;7.50;99.90;;;;;;5072034;28;20044;-80
2021/12/29 00:56:04;;;;;;;32.17;8.65;;;7.50;99.90;;;;;;5072594;28;20110;-80
2021/12/29 00:58:30;;;;;;;56.95;10.00;;;7.50;99.90;;;;;;5054663;28;20159;-71
2021/12/29 01:00:58;;;;;;;37.78;9.10;;;7.50;99.90;;;;;;5056332;28;20047;-78
2021/12/29 01:03:24;;;;;;;37.40;8.77;;;7.50;99.90;;;;;;5055242;28;20036;-80
2021/12/29 01:05:50;;;;;;;33.85;8.73;;;7.50;99.90;;;;;;5071821;28;20040;-79
2021/12/29 01:08:16;;;;;;;37.67;8.18;;;7.50;99.90;;;;;;5071946;28;20097;-78
2021/12/29 01:10:42;;;;;;;26.30;7.28;;;7.50;99.90;;;;;;5075693;28;20040;-79
2021/12/29 01:13:11;;;;;;;27.05;7.40;;;7.50;99.90;;;;;;5059389;28;20040;-77
2021/12/29 01:18:26;;;;;;;24.67;6.45;;;7.50;99.90;;;;;;5074326;28;20043;-78
2021/12/29 01:20:53;;;;;;;20.92;5.18;;;7.50;99.90;;;;;;5059358;28;20051;-77
2021/12/29 01:23:19;;;;;;;22.33;6.05;;;7.60;99.90;;;;;;5058452;28;20549;-73
2021/12/29 01:25:45;;;;;;;18.77;5.70;;;7.60;99.90;;;;;;5075050;28;20044;-78
2021/12/29 01:28:10;;;;;;;27.95;6.72;;;7.70;99.90;;;;;;5075383;28;20040;-77
2021/12/29 01:30:36;;;;;;;22.73;6.53;;;7.60;99.90;;;;;;5076021;28;20044;-78
2021/12/29 01:33:06;;;;;;;15.75;5.53;;;7.70;99.90;;;;;;5075027;28;20040;-78
2021/12/29 01:35:32;;;;;;;17.85;5.97;;;7.70;99.90;;;;;;5074895;28;20075;-77
2021/12/29 01:37:58;;;;;;;20.38;6.78;;;7.70;99.90;;;;;;5075024;28;20037;-78
2021/12/29 01:40:24;;;;;;;18.77;6.03;;;7.70;99.90;;;;;;5057341;28;20711;-78
2021/12/29 01:42:50;;;;;;;25.85;6.97;;;7.70;99.90;;;;;;5075854;28;20078;-73
2021/12/29 01:45:15;;;;;;;25.27;6.97;;;7.70;99.90;;;;;;5074892;28;20505;-79
2021/12/29 01:47:41;;;;;;;18.83;6.60;;;7.70;99.90;;;;;;5074216;28;20036;-71
2021/12/29 01:50:09;;;;;;;18.83;7.07;;;7.70;99.90;;;;;;5075787;28;20381;-78
2021/12/29 01:52:39;;;;;;;20.58;7.93;;;7.70;99.90;;;;;;5075410;28;20044;-78
2021/12/29 01:55:07;;;;;;;22.20;8.40;;;7.80;99.90;;;;;;5074609;28;20047;-78
2021/12/29 01:57:33;;;;;;;28.05;9.30;;;7.70;99.90;;;;;;5075017;28;20106;-72
2021/12/29 01:59:59;;;;;;;23.73;9.57;;;7.70;99.90;;;;;;5074549;28;20071;-79
2021/12/29 02:02:25;;;;;;;31.85;9.75;;;7.80;99.90;;;;;;5074403;28;20048;-79
2021/12/29 02:04:50;;;;;;;26.45;9.45;;;7.80;99.90;;;;;;5075119;28;20089;-78
2021/12/29 02:07:16;;;;;;;28.05;9.57;;;7.80;99.90;;;;;;5073762;28;20543;-77
2021/12/29 02:09:42;;;;;;;25.35;9.77;;;7.80;99.90;;;;;;5058501;28;20040;-77
2021/12/29 02:12:08;;;;;;;25.85;9.95;;;7.90;99.90;;;;;;5058187;28;20516;-75
2021/12/29 02:14:34;;;;;;;29.75;11.35;;;7.90;99.90;;;;;;5056284;28;20076;-76
2021/12/29 02:17:00;;;;;;;33.35;12.93;;;7.90;99.90;;;;;;5058146;28;20078;-76
2021/12/29 02:19:26;;;;;;;35.15;12.68;;;8.00;99.90;;;;;;5074101;28;20036;-76
2021/12/29 02:22:22;;;;;;;33.20;12.55;;;8.00;99.90;;;;;;5073418;28;20131;-77
2021/12/29 02:24:44;;;;;;;38.60;14.85;;;8.00;99.90;;;;;;5073845;28;20052;-78
2021/12/29 02:27:13;;;;;;;32.08;13.18;;;8.00;99.90;;;;;;5074693;28;20039;-79
2021/12/29 02:29:42;;;;;;;24.58;13.43;;;8.10;99.90;;;;;;5073635;28;20032;-78
2021/12/29 02:32:07;;;;;;;27.70;13.88;;;8.10;99.90;;;;;;5073466;28;20044;-70
2021/12/29 02:34:33;;;;;;;31.63;14.20;;;8.10;99.90;;;;;;5074205;28;20044;-78
2021/12/29 02:37:03;;;;;;;23.25;12.95;;;8.20;99.90;;;;;;5072838;28;20404;-72
2021/12/29 02:39:32;;;;;;;26.02;13.40;;;8.20;99.90;;;;;;5074132;28;20047;-77
2021/12/29 02:42:04;;;;;;;26.30;13.45;;;8.20;99.90;;;;;;5074144;28;20051;-72
2021/12/29 02:44:30;;;;;;;25.02;13.25;;;8.20;99.90;;;;;;5074260;28;20051;-80
2021/12/29 02:46:58;;;;;;;25.60;14.07;;;8.20;99.90;;;;;;5074062;28;20055;-77
2021/12/29 02:49:25;;;;;;;22.42;12.43;;;8.10;99.90;;;;;;5073408;28;20698;-77
2021/12/29 02:51:51;;;;;;;23.13;13.43;;;8.20;99.90;;;;;;5073863;28;20054;-78
2021/12/29 02:54:18;;;;;;;22.02;12.20;;;8.10;99.90;;;;;;5074057;28;20052;-75
2021/12/29 02:56:48;;;;;;;21.48;11.80;;;8.20;99.90;;;;;;5056391;28;20133;-78
2021/12/29 02:59:14;;;;;;;18.10;11.60;;;8.20;99.90;;;;;;5073856;28;20514;-79
2021/12/29 03:01:40;;;;;;;20.85;11.88;;;8.20;99.90;;;;;;5073604;28;20492;-77
2021/12/29 03:04:06;;;;;;;17.10;10.60;;;8.20;99.90;;;;;;5073409;28;20054;-76
2021/12/29 03:06:32;;;;;;;19.02;10.68;;;8.20;99.90;;;;;;5073806;28;20074;-76
2021/12/29 03:08:58;;;;;;;16.73;10.32;;;8.20;99.90;;;;;;5073625;28;20419;-69
2021/12/29 03:11:24;;;;;;;18.35;10.70;;;8.20;99.90;;;;;;5073165;28;20490;-77
2021/12/29 03:13:50;;;;;;;16.60;10.02;;;8.20;99.90;;;;;;5056648;28;20036;-76
2021/12/29 03:16:15;;;;;;;18.38;10.75;;;8.20;99.90;;;;;;5073279;28;20051;-77
2021/12/29 03:18:42;;;;;;;23.67;10.13;;;8.20;99.90;;;;;;5072880;28;20454;-77
2021/12/29 03:21:09;;;;;;;18.70;9.98;;;8.20;99.90;;;;;;5073580;28;20130;-77
2021/12/29 03:23:39;;;;;;;15.43;9.07;;;8.20;99.90;;;;;;5091934;28;20051;-73
2021/12/29 03:26:06;;;;;;;15.95;9.50;;;8.20;99.90;;;;;;5072992;28;20040;-79
2021/12/29 03:28:33;;;;;;;20.67;10.73;;;8.20;99.90;;;;;;5056640;28;20042;-79
2021/12/29 03:30:58;;;;;;;18.50;9.43;;;8.20;99.90;;;;;;5073524;28;20561;-73
2021/12/29 03:33:26;;;;;;;16.80;10.20;;;8.20;99.90;;;;;;5071761;28;20123;-78
2021/12/29 03:36:00;;;;;;;18.85;9.48;;;8.20;99.90;;;;;;5056460;28;20036;-76
2021/12/29 03:38:27;;;;;;;20.02;10.20;;;8.20;99.90;;;;;;5072026;28;20051;-78
2021/12/29 03:40:54;;;;;;;16.88;10.90;;;8.20;99.90;;;;;;5069675;28;20086;-78
2021/12/29 03:43:20;;;;;;;22.30;11.05;;;8.20;99.90;;;;;;5069261;28;20033;-74
2021/12/29 03:45:48;;;;;;;24.35;11.77;;;8.10;99.90;;;;;;5055819;28;20412;-75
2021/12/29 03:48:15;;;;;;;24.20;13.07;;;8.20;99.90;;;;;;5072642;28;20052;-74
2021/12/29 03:50:41;;;;;;;26.58;11.57;;;8.20;99.90;;;;;;5056147;28;20051;-75
2021/12/29 03:53:07;;;;;;;21.95;12.18;;;8.20;99.90;;;;;;5071903;28;20411;-75
2021/12/29 03:55:33;;;;;;;26.70;12.48;;;8.10;99.90;;;;;;5091140;28;20047;-75
2021/12/29 03:57:59;;;;;;;30.23;13.52;;;8.20;99.90;;;;;;5072931;28;20047;-75
2021/12/29 04:00:25;;;;;;;22.17;12.65;;;8.10;99.90;;;;;;5071869;28;20044;-77
2021/12/29 04:02:51;;;;;;;22.60;13.38;;;8.10;99.90;;;;;;5072448;28;20055;-77
2021/12/29 04:05:20;;;;;;;25.00;14.35;;;8.10;99.90;;;;;;5072781;28;20488;-74
2021/12/29 04:07:46;;;;;;;21.95;13.77;;;8.10;99.90;;;;;;5072388;28;20165;-78
2021/12/29 04:10:13;;;;;;;19.50;13.68;;;8.10;99.90;;;;;;5072781;28;20075;-78
2021/12/29 04:12:39;;;;;;;25.42;13.02;;;8.10;99.90;;;;;;5073235;28;20127;-78
2021/12/29 04:15:07;;;;;;;27.02;15.25;;;8.10;99.90;;;;;;5072450;28;20047;-74
2021/12/29 04:17:39;;;;;;;23.33;15.15;;;8.10;99.90;;;;;;5072849;28;20079;-75
2021/12/29 04:22:55;;;;;;;22.85;14.13;;;8.10;99.90;;;;;;5071775;28;20492;-75
2021/12/29 04:25:24;;;;;;;24.02;13.90;;;8.10;99.90;;;;;;5072958;28;20133;-75
2021/12/29 04:27:54;;;;;;;20.73;14.75;;;8.10;99.90;;;;;;5071677;28;20052;-69
2021/12/29 04:30:21;;;;;;;22.88;14.43;;;8.10;99.90;;;;;;5073035;28;20036;-78
2021/12/29 04:32:47;;;;;;;25.15;16.02;;;8.10;99.90;;;;;;5055068;28;20245;-78
2021/12/29 04:35:12;;;;;;;24.38;14.63;;;8.10;99.90;;;;;;5090344;28;20078;-77
2021/12/29 04:37:39;;;;;;;30.48;15.93;;;8.10;99.90;;;;;;5090538;28;20082;-69
2021/12/29 04:40:06;;;;;;;24.73;15.43;;;8.10;99.90;;;;;;5073168;28;20662;-78
2021/12/29 04:42:32;;;;;;;30.27;16.17;;;8.10;99.90;;;;;;5054714;28;20381;-79
2021/12/29 04:44:57;;;;;;;28.67;15.75;;;8.00;99.90;;;;;;5076095;28;20048;-78
2021/12/29 04:47:28;;;;;;;24.55;16.15;;;8.10;99.90;;;;;;5075600;28;20495;-76
2021/12/29 04:49:55;;;;;;;29.30;15.05;;;8.10;99.90;;;;;;5077951;28;20048;-76
2021/12/29 04:52:20;;;;;;;27.30;14.80;;;8.00;99.90;;;;;;5072537;28;20054;-76
2021/12/29 04:54:46;;;;;;;23.73;15.25;;;8.00;99.90;;;;;;5043571;28;20036;-75
2021/12/29 04:57:12;;;;;;;25.67;14.65;;;8.00;99.90;;;;;;5053615;28;20445;-75
2021/12/29 04:59:38;;;;;;;24.85;15.60;;;8.10;99.90;;;;;;5075380;28;20430;-71
2021/12/29 05:02:03;;;;;;;25.10;14.40;;;8.00;99.90;;;;;;5076266;28;20044;-73
2021/12/29 05:04:34;;;;;;;29.30;15.57;;;8.10;99.90;;;;;;5058063;28;20151;-75
2021/12/29 05:09:46;;;;;;;24.02;14.73;;;8.10;99.90;;;;;;5074768;28;20043;-74
2021/12/29 05:12:12;;;;;;;25.88;16.30;;;8.10;99.90;;;;;;5075777;28;20036;-74
2021/12/29 05:14:39;;;;;;;27.33;16.05;;;8.10;99.90;;;;;;5075895;28;20123;-75
2021/12/29 05:17:05;;;;;;;27.55;15.68;;;8.10;99.90;;;;;;5075335;28;20048;-74
2021/12/29 05:19:32;;;;;;;29.38;16.42;;;8.10;99.90;;;;;;5075986;28;20042;-77
2021/12/29 05:21:58;;;;;;;30.08;16.90;;;8.10;99.90;;;;;;5058818;28;20064;-70
2021/12/29 05:24:24;;;;;;;30.33;16.27;;;8.10;99.90;;;;;;5075223;28;20485;-76
2021/12/29 05:26:50;;;;;;;31.90;16.42;;;8.10;99.90;;;;;;5093725;28;20408;-76
2021/12/29 05:29:15;;;;;;;25.88;14.80;;;8.10;99.90;;;;;;5094349;28;20499;-76
2021/12/29 05:31:41;;;;;;;27.40;14.32;;;8.10;99.90;;;;;;5092687;28;20404;-75
2021/12/29 05:34:07;;;;;;;23.63;13.82;;;8.10;99.90;;;;;;5075956;28;20083;-76
2021/12/29 05:36:32;;;;;;;25.38;14.60;;;8.10;99.90;;;;;;5075209;28;20051;-76
2021/12/29 05:38:58;;;;;;;27.13;15.77;;;8.00;99.90;;;;;;5075519;28;20479;-67
2021/12/29 05:41:24;;;;;;;26.35;14.15;;;8.10;99.90;;;;;;5074687;28;20044;-76
2021/12/29 05:43:50;;;;;;;23.23;13.88;;;8.10;99.90;;;;;;5075274;28;20040;-73
2021/12/29 05:46:16;;;;;;;25.25;14.48;;;8.00;99.90;;;;;;5057487;28;20440;-79
2021/12/29 05:48:41;;;;;;;23.13;13.73;;;8.10;99.90;;;;;;5074987;28;20512;-78
2021/12/29 05:51:07;;;;;;;26.35;14.23;;;8.10;99.90;;;;;;5058420;28;20048;-78
2021/12/29 05:53:33;;;;;;;25.27;12.73;;;8.10;99.90;;;;;;5074398;28;20117;-79
2021/12/29 05:55:59;;;;;;;26.45;13.43;;;8.00;99.90;;;;;;5057087;28;20514;-70
2021/12/29 05:58:24;;;;;;;24.20;13.57;;;8.10;99.90;;;;;;5074952;28;20048;-75
2021/12/29 06:00:50;;;;;;;31.55;12.88;;;8.00;99.90;;;;;;5074173;28;20122;-74
2021/12/29 06:03:18;;;;;;;22.58;13.43;;;8.10;99.90;;;;;;5075062;28;20067;-78
2021/12/29 06:05:43;;;;;;;26.40;13.13;;;8.00;99.90;;;;;;5074963;28;20039;-75
2021/12/29 06:08:09;;;;;;;25.00;12.20;;;8.00;99.90;;;;;;5074398;28;20123;-70
2021/12/29 06:10:35;;;;;;;28.65;13.15;;;8.00;99.90;;;;;;5074497;28;20066;-75
2021/12/29 06:13:01;;;;;;;25.83;13.18;;;8.00;99.90;;;;;;5073566;28;20140;-75
2021/12/29 06:15:26;;;;;;;28.75;13.27;;;8.00;99.90;;;;;;5055167;28;20101;-75
2021/12/29 06:17:52;;;;;;;28.08;12.85;;;8.00;99.90;;;;;;5058058;28;20407;-75
2021/12/29 06:20:18;;;;;;;27.20;12.27;;;8.00;99.90;;;;;;5073965;28;20052;-69
2021/12/29 06:22:44;;;;;;;25.08;12.82;;;8.00;99.90;;;;;;5074613;28;20044;-75
2021/12/29 06:25:15;;;;;;;23.92;12.98;;;8.00;99.90;;;;;;5074371;28;20044;-79
2021/12/29 06:27:41;;;;;;;25.02;12.80;;;8.00;99.90;;;;;;5072452;28;20098;-79
2021/12/29 06:30:09;;;;;;;29.17;13.15;;;8.00;99.90;;;;;;5074809;28;20138;-81
2021/12/29 06:32:34;;;;;;;26.17;12.63;;;8.00;99.90;;;;;;5074442;28;20484;-81
2021/12/29 06:35:00;;;;;;;30.00;12.77;;;7.90;99.90;;;;;;5073512;28;20044;-75
2021/12/29 06:37:26;;;;;;;29.40;11.93;;;8.00;99.90;;;;;;5058284;28;20097;-73
2021/12/29 06:39:51;;;;;;;28.70;13.10;;;8.00;99.90;;;;;;5074326;28;20084;-78
2021/12/29 06:42:18;;;;;;;24.10;11.85;;;8.00;99.90;;;;;;5072695;28;20121;-73
2021/12/29 06:44:46;;;;;;;27.55;12.18;;;8.00;99.90;;;;;;5073611;28;20081;-79
2021/12/29 06:47:13;;;;;;;25.73;12.13;;;8.00;99.90;;;;;;5058094;28;20082;-79
2021/12/29 06:49:39;;;;;;;26.80;12.20;;;8.00;99.90;;;;;;5073182;28;20529;-80
2021/12/29 06:52:05;;;;;;;37.08;13.18;;;8.00;99.90;;;;;;5074329;28;20048;-76
2021/12/29 06:54:32;;;;;;;29.15;12.38;;;8.00;99.90;;;;;;5092158;28;20093;-77
2021/12/29 06:56:58;;;;;;;34.58;12.40;;;8.00;99.90;;;;;;5073606;28;20048;-73
2021/12/29 06:59:23;;;;;;;32.42;12.52;;;8.00;99.90;;;;;;5073594;28;20123;-75
2021/12/29 07:01:49;;;;;;;36.22;11.63;;;8.00;99.90;;;;;;5073751;28;20127;-75
2021/12/29 07:04:16;;;;;;;34.45;12.93;;;8.00;99.90;;;;;;5072964;28;20067;-75
2021/12/29 07:06:41;;;;;;;33.67;13.30;;;8.00;99.90;;;;;;5073203;28;20745;-75
2021/12/29 07:09:07;;;;;;;24.45;11.88;;;8.00;99.90;;;;;;5092210;28;20042;-70
2021/12/29 07:11:34;;;;;;;35.20;12.30;;;8.00;99.90;;;;;;5072222;28;20130;-75
2021/12/29 07:14:02;;;;;;;36.80;12.98;;;8.00;99.90;;;;;;5073946;28;20063;-75
2021/12/29 07:16:28;;;;;;;30.05;12.55;;;8.00;99.90;;;;;;5073128;28;20133;-69
2021/12/29 07:18:54;;;;;;;31.50;12.13;;;8.00;99.90;;;;;;5056796;28;20036;-75
2021/12/29 07:21:19;;;;;;;31.33;12.98;;;8.00;99.90;;;;;;5073488;28;20040;-75
2021/12/29 07:23:45;;;;;;;35.33;12.25;;;8.00;99.90;;;;;;5072761;28;20048;-77
2021/12/29 07:26:11;;;;;;;40.50;12.98;;;8.00;99.90;;;;;;5073623;28;20097;-74
2021/12/29 07:28:37;;;;;;;33.92;12.48;;;8.10;99.90;;;;;;5073150;28;20443;-77
2021/12/29 07:31:03;;;;;;;28.60;10.68;;;8.10;99.90;;;;;;5072948;28;20062;-75
2021/12/29 07:33:28;;;;;;;26.90;10.27;;;8.10;99.90;;;;;;5073058;28;20400;-68
2021/12/29 07:35:54;;;;;;;23.40;9.30;;;8.00;99.90;;;;;;5073004;28;20052;-76
2021/12/29 07:38:20;;;;;;;30.13;10.15;;;8.10;99.90;;;;;;5072229;28;20499;-78
2021/12/29 07:40:45;;;;;;;19.88;8.85;;;8.10;99.90;;;;;;5090441;28;20151;-78
2021/12/29 07:43:11;;;;;;;20.98;7.93;;;8.10;99.90;;;;;;5073223;28;20044;-76
2021/12/29 07:45:37;;;;;;;17.73;7.82;;;8.10;99.90;;;;;;5072657;28;20043;-77
2021/12/29 07:48:04;;;;;;;15.10;7.28;;;8.10;99.90;;;;;;5072815;28;20087;-76
2021/12/29 07:50:30;;;;;;;14.75;7.57;;;8.10;99.90;;;;;;5056399;28;20051;-76
2021/12/29 07:52:56;;;;;;;12.85;7.07;;;8.10;99.90;;;;;;5055122;28;20484;-78
2021/12/29 07:55:21;;;;;;;18.15;8.32;;;8.10;99.90;;;;;;5073091;28;20040;-75
2021/12/29 07:57:48;;;;;;;14.20;7.15;;;8.10;99.90;;;;;;5072905;28;20135;-72
2021/12/29 08:00:15;;;;;;;25.92;9.88;;;8.10;99.90;;;;;;5072333;28;20043;-75
2021/12/29 08:02:43;;;;;;;30.50;10.73;;;8.20;99.90;;;;;;5091004;28;20071;-75
2021/12/29 08:05:10;;;;;;;17.15;8.25;;;8.20;99.90;;;;;;5073356;28;20046;-75
2021/12/29 08:07:36;;;;;;;18.00;8.60;;;8.10;99.90;;;;;;5088885;28;20048;-71
2021/12/29 08:10:02;;;;;;;20.30;7.90;;;8.20;99.90;;;;;;5073039;28;20102;-86
2021/12/29 08:12:28;;;;;;;20.27;8.68;;;8.20;99.90;;;;;;5072355;28;20051;-71
2021/12/29 08:14:53;;;;;;;24.80;9.77;;;8.20;99.90;;;;;;5072468;28;20396;-76
2021/12/29 08:17:19;;;;;;;22.38;8.93;;;8.20;99.90;;;;;;5072658;28;20452;-76
2021/12/29 08:19:45;;;;;;;27.25;9.77;;;8.20;99.90;;;;;;5071235;28;20523;-78
2021/12/29 08:22:12;;;;;;;36.10;9.82;;;8.20;99.90;;;;;;5072086;28;20518;-75
2021/12/29 08:24:39;;;;;;;30.52;10.27;;;8.20;99.90;;;;;;5056112;28;20082;-70
2021/12/29 08:27:05;;;;;;;23.48;10.35;;;8.30;99.90;;;;;;5068767;28;20044;-75
2021/12/29 08:29:31;;;;;;;32.78;10.45;;;8.20;99.90;;;;;;5071882;28;20392;-75
2021/12/29 08:31:57;;;;;;;22.83;9.32;;;8.20;99.90;;;;;;5071430;28;20048;-76
2021/12/29 08:34:24;;;;;;;28.40;8.60;;;8.20;99.90;;;;;;5055688;28;20044;-75
2021/12/29 08:36:50;;;;;;;18.83;8.40;;;8.20;99.90;;;;;;5071851;28;20123;-76
2021/12/29 08:39:18;;;;;;;21.85;9.07;;;8.20;99.90;;;;;;5072331;28;20043;-76
2021/12/29 08:41:45;;;;;;;15.65;7.93;;;8.30;99.90;;;;;;5071830;28;20060;-74
2021/12/29 08:44:10;;;;;;;18.73;8.48;;;8.30;99.90;;;;;;5072312;28;20051;-74
2021/12/29 08:46:36;;;;;;;18.08;7.90;;;8.30;99.90;;;;;;5071990;28;20047;-74
2021/12/29 08:49:02;;;;;;;14.35;7.90;;;8.30;99.90;;;;;;5070708;28;20408;-74
2021/12/29 08:51:28;;;;;;;14.30;7.22;;;8.30;99.90;;;;;;5069287;28;20082;-72
2021/12/29 08:53:54;;;;;;;10.25;6.80;;;8.40;99.90;;;;;;5063263;28;20048;-75
2021/12/29 08:56:19;;;;;;;23.58;8.60;;;8.40;99.90;;;;;;5063559;28;20040;-71
2021/12/29 08:58:46;;;;;;;13.90;7.57;;;8.40;99.90;;;;;;5071955;28;20421;-73
2021/12/29 09:01:12;;;;;;;20.80;8.52;;;8.50;99.90;;;;;;5070866;28;20066;-74
2021/12/29 09:03:40;;;;;;;16.85;8.05;;;8.50;99.90;;;;;;5070427;28;20044;-74
2021/12/29 09:06:05;;;;;;;18.80;8.45;;;8.50;99.90;;;;;;5071364;28;20056;-74
2021/12/29 09:08:34;;;;;;;14.73;7.88;;;8.50;99.90;;;;;;5053382;28;20051;-74
2021/12/29 09:11:00;;;;;;;13.52;7.90;;;8.50;99.90;;;;;;5050098;28;20036;-74
2021/12/29 09:13:25;;;;;;;13.52;7.25;;;8.50;99.90;;;;;;5071116;28;20404;-73
2021/12/29 09:15:56;;;;;;;15.23;7.35;;;8.50;99.90;;;;;;5085969;28;20122;-73
2021/12/29 09:18:23;;;;;;;12.93;6.07;;;8.50;99.90;;;;;;5065676;28;20476;-75
2021/12/29 09:20:49;;;;;;;17.67;7.55;;;8.50;99.90;;;;;;5069023;28;20044;-72
2021/12/29 09:23:15;;;;;;;14.15;7.53;;;8.60;99.90;;;;;;5061678;28;20059;-73
2021/12/29 09:25:43;;;;;;;16.35;6.20;;;8.50;99.90;;;;;;5050488;28;20071;-73
2021/12/29 09:28:12;;;;;;;14.00;6.45;;;8.50;99.90;;;;;;5070043;28;20550;-73
2021/12/29 09:30:42;;;;;;;13.02;6.55;;;8.50;99.90;;;;;;5071038;28;20557;-71
2021/12/29 09:33:07;;;;;;;9.57;5.70;;;8.50;99.90;;;;;;5087255;28;20094;-71
2021/12/29 09:35:33;;;;;;;14.05;6.07;;;8.60;99.90;;;;;;5069032;28;20040;-73
2021/12/29 09:37:59;;;;;;;12.90;5.05;;;8.60;99.90;;;;;;5063447;28;20046;-74
2021/12/29 09:40:25;;;;;;;18.73;5.57;;;8.60;99.90;;;;;;5062449;28;20036;-72
2021/12/29 09:42:53;;;;;;;16.55;5.63;;;8.60;99.90;;;;;;5082377;28;20504;-74
2021/12/29 09:45:20;;;;;;;10.15;4.47;;;8.60;99.90;;;;;;5073464;28;20036;-71
2021/12/29 09:47:46;;;;;;;14.05;4.18;;;8.60;99.90;;;;;;5070214;28;20451;-73
2021/12/29 09:50:14;;;;;;;10.68;4.28;;;8.60;99.90;;;;;;5072650;28;20044;-73
2021/12/29 09:52:41;;;;;;;13.48;5.05;;;8.60;99.90;;;;;;5071723;28;20041;-73
2021/12/29 09:55:10;;;;;;;11.85;4.32;;;8.60;99.90;;;;;;5056186;28;20515;-74
2021/12/29 09:57:45;;;;;;;7.38;4.13;;;8.60;99.90;;;;;;5057017;28;20059;-73
2021/12/29 10:00:36;;;;;;;10.75;4.22;;;8.60;99.90;;;;;;5073239;28;20035;-74
2021/12/29 10:03:05;;;;;;;11.48;4.28;;;8.70;99.90;;;;;;5074065;28;20454;-71
2021/12/29 10:05:31;;;;;;;8.82;4.18;;;8.70;99.90;;;;;;5072408;28;20055;-72
2021/12/29 10:08:05;;;;;;;15.13;5.13;;;8.70;99.90;;;;;;5063517;28;20051;-74
2021/12/29 10:10:32;;;;;;;9.05;4.60;;;8.70;99.90;;;;;;5071708;28;20090;-75
2021/12/29 10:12:59;;;;;;;17.25;4.60;;;8.70;99.90;;;;;;5057275;28;20090;-72
2021/12/29 10:15:36;;;;;;;17.15;5.07;;;8.70;99.90;;;;;;5074758;28;20072;-75
2021/12/29 10:18:07;;;;;;;19.05;5.18;;;8.70;99.90;;;;;;5054161;28;20044;-74
2021/12/29 10:20:46;;;;;;;16.13;5.28;;;8.70;99.90;;;;;;5074297;28;20048;-75
2021/12/29 10:23:19;;;;;;;13.68;5.70;;;8.70;99.90;;;;;;5073425;28;20403;-74
2021/12/29 10:25:45;;;;;;;18.33;5.13;;;8.70;99.90;;;;;;5057622;28;20043;-74
2021/12/29 10:28:42;;;;;;;12.85;5.60;;;8.70;99.90;;;;;;5057201;28;20048;-74
2021/12/29 10:31:13;;;;;;;18.23;5.15;;;8.70;99.90;;;;;;5042741;28;20067;-71
2021/12/29 10:33:48;;;;;;;17.70;4.95;;;8.70;99.90;;;;;;5073585;28;20047;-75
2021/12/29 10:36:13;;;;;;;15.55;4.75;;;8.80;99.90;;;;;;5073915;28;20484;-74
2021/12/29 10:38:41;;;;;;;24.17;5.18;;;8.80;99.90;;;;;;5073424;28;20051;-75
2021/12/29 10:41:07;;;;;;;18.08;4.93;;;8.90;99.90;;;;;;5073803;28;20074;-75
2021/12/29 10:43:33;;;;;;;21.88;5.68;;;8.90;99.90;;;;;;5073425;28;20063;-74
2021/12/29 10:45:59;;;;;;;20.88;4.57;;;9.00;99.90;;;;;;5072671;28;20043;-75
2021/12/29 10:48:28;;;;;;;20.50;4.10;;;9.00;99.90;;;;;;5073259;28;20467;-73
2021/12/29 10:51:08;;;;;;;15.50;3.60;;;9.00;99.90;;;;;;5061611;28;20089;-72
2021/12/29 10:53:37;;;;;;;19.67;4.00;;;9.10;99.90;;;;;;5090183;28;20050;-73
2021/12/29 10:56:04;;;;;;;18.05;4.05;;;9.10;99.90;;;;;;5087399;28;20086;-71
2021/12/29 10:58:34;;;;;;;17.90;3.17;;;9.10;99.90;;;;;;5069717;28;20044;-74
2021/12/29 11:01:08;;;;;;;18.27;3.55;;;9.20;99.90;;;;;;5072792;28;20052;-70
2021/12/29 11:03:42;;;;;;;18.67;3.58;;;9.20;99.90;;;;;;5069192;28;20089;-74
2021/12/29 11:06:16;;;;;;;19.55;3.53;;;9.20;99.90;;;;;;5073340;28;20079;-71
2021/12/29 11:09:08;;;;;;;14.13;3.30;;;9.20;99.90;;;;;;5053556;28;20389;-75
2021/12/29 11:11:39;;;;;;;19.40;3.97;;;9.30;99.90;;;;;;5052603;28;20094;-76
2021/12/29 11:14:16;;;;;;;18.77;3.72;;;9.30;99.90;;;;;;5073635;28;20047;-74
2021/12/29 11:16:44;;;;;;;18.60;3.33;;;9.30;99.90;;;;;;5073617;28;20085;-70
2021/12/29 11:19:10;;;;;;;18.70;3.53;;;9.30;99.90;;;;;;5074014;28;20043;-74
2021/12/29 11:21:39;;;;;;;19.02;4.30;;;9.20;99.90;;;;;;5056158;28;20048;-75
2021/12/29 11:24:17;;;;;;;19.20;3.90;;;9.20;99.90;;;;;;5056630;28;20040;-74
2021/12/29 11:26:44;;;;;;;21.23;3.90;;;9.20;99.90;;;;;;5072595;28;20067;-75
2021/12/29 11:29:15;;;;;;;15.98;4.00;;;9.20;99.90;;;;;;5043133;28;20424;-74
2021/12/29 11:31:50;;;;;;;18.13;3.20;;;9.10;99.90;;;;;;5052723;28;20063;-74
2021/12/29 11:34:19;;;;;;;17.10;4.65;;;9.10;99.90;;;;;;5056462;28;20089;-74
2021/12/29 11:36:58;;;;;;;18.40;4.13;;;9.10;99.90;;;;;;5072817;28;20086;-74
2021/12/29 11:39:23;;;;;;;14.75;3.90;;;9.10;99.90;;;;;;5073190;28;20114;-72
2021/12/29 11:41:49;;;;;;;16.13;3.60;;;9.10;99.90;;;;;;5052176;28;20178;-74
2021/12/29 11:44:15;;;;;;;18.17;3.70;;;9.10;99.90;;;;;;5068878;28;20748;-75
2021/12/29 11:46:41;;;;;;;12.70;4.18;;;9.10;99.90;;;;;;5056260;28;20052;-75
2021/12/29 11:49:06;;;;;;;15.32;4.30;;;9.10;99.90;;;;;;5072919;28;20126;-74
2021/12/29 11:51:54;;;;;;;16.15;5.03;;;9.10;99.90;;;;;;5073292;28;20188;-74
2021/12/29 11:54:31;;;;;;;14.43;4.38;;;9.10;99.90;;;;;;5072181;28;20044;-72
2021/12/29 11:56:57;;;;;;;17.92;5.03;;;9.00;99.90;;;;;;5071851;28;20080;-74
2021/12/29 11:59:30;;;;;;;17.55;4.85;;;9.00;99.90;;;;;;5072580;28;20048;-74
2021/12/29 12:02:00;;;;;;;17.10;5.10;;;9.00;99.90;;;;;;5055857;28;20036;-74
2021/12/29 12:04:26;;;;;;;15.85;4.43;;;9.00;99.90;;;;;;5072255;28;20044;-74
2021/12/29 12:07:04;;;;;;;21.52;5.55;;;9.00;99.90;;;;;;5072394;28;20046;-74
2021/12/29 12:09:45;;;;;;;15.40;4.45;;;8.90;99.90;;;;;;5067309;28;20503;-72
2021/12/29 12:12:12;;;;;;;18.48;5.68;;;8.90;99.90;;;;;;5055991;28;20130;-75
2021/12/29 12:14:50;;;;;;;19.58;4.90;;;8.90;99.90;;;;;;5073180;28;20044;-75
2021/12/29 12:17:17;;;;;;;19.42;4.97;;;9.00;99.90;;;;;;5072020;28;20036;-75
2021/12/29 12:19:43;;;;;;;18.92;5.60;;;8.90;99.90;;;;;;5054868;28;20101;-74
2021/12/29 12:22:11;;;;;;;15.48;5.25;;;9.00;99.90;;;;;;5072897;28;20052;-74
2021/12/29 12:24:39;;;;;;;18.85;5.47;;;9.00;99.90;;;;;;5071757;28;20089;-75
2021/12/29 12:27:15;;;;;;;16.08;6.70;;;9.00;99.90;;;;;;5071507;28;20594;-74
2021/12/29 12:29:43;;;;;;;17.23;6.25;;;9.00;99.90;;;;;;5072514;28;20055;-75
2021/12/29 12:32:19;;;;;;;18.40;7.15;;;9.00;99.90;;;;;;5072090;28;20043;-75
2021/12/29 12:34:58;;;;;;;15.43;6.75;;;9.00;99.90;;;;;;5072727;28;20075;-74
2021/12/29 12:37:45;;;;;;;21.00;7.10;;;8.90;99.90;;;;;;5069328;28;20103;-75
2021/12/29 12:40:31;;;;;;;17.15;8.55;;;9.00;99.90;;;;;;5051509;28;20044;-75
2021/12/29 12:43:11;;;;;;;21.65;8.77;;;8.90;99.90;;;;;;5035645;28;20052;-75
2021/12/29 12:45:43;;;;;;;18.55;8.27;;;8.90;99.90;;;;;;5053861;28;20087;-75
2021/12/29 12:48:25;;;;;;;22.05;9.65;;;8.90;99.90;;;;;;5056418;28;20179;-75
2021/12/29 12:50:52;;;;;;;21.30;9.82;;;8.90;99.90;;;;;;5069266;28;20080;-75
2021/12/29 12:53:34;;;;;;;24.00;11.23;;;8.80;99.90;;;;;;5051948;28;20057;-71